Página principal
METAR-TAF:

METAR-TAF

Aeroportos :

Aeroporto Internacional Simón Bolívar

Caracas, Venezuela

latitude: 10-36N, longitude: 066-59W, altura: 43 m

Observação actual do tempo

O boletim foi feito há 44 minutos, às 21:00 UTC
Vento 7 kt de este
Temperatura 30°C
Humidade 62%
Pressão 1010 hPa
Visibilidade 10 km ou mais
Nuvens fragmentadasa uma altura de 1600 ft

METAR: SVMI 202100Z 09007KT 9999 BKN016 30/22 Q1010

Hora: 17:44 (21:44 UTC)

Previsão

O boletim foi feito há 5 horas e 44 minutos, às 16:00 UTC
Previsão válida de 20 às 18 UTC a 21 às 18 UTC
Vento 7 kt de es-sudeste
Visibilidade 10 km ou mais
Poucas nuvensa uma altura de 1600 ft
Tornando-se
de 20 às 18 UTC a 20 às 22 UTC
Vento 4 kt de nor-noroeste
Visibilidade 10 km ou mais
Poucas nuvensa uma altura de 1600 ft
Nuvens dispersasa uma altura de 10000 ft

TAF: SVMI 201600Z 2018/2118 11007KT 9999 FEW016 TX32/18Z TN22/08Z BECMG 2018/2022 34004KT 9999 FEW016 SCT100

Observações e previsões do tempo de mais de 4000 aeroportos (mensagens METAR e TAF).

As estações disponíveis são os pontos amarelos e vermelhos sobre o mapa.

Mova o rato sobre o mapa para ver o nome da estação.

Depois clique no ponto para visualizar as observações e previsões meteorológicas.

Para alterar o mapa : clique nos botões verdes com uma cruz preta para aumentar o zoom; no botão verde com uma pitada de zoom; ou nas setas verdes para mapas adjacentes.


METAR-TAF: